Time;durP1;ratioP1;P1;durP2;ratioP2;P2;SDS_P1;SDS_P2;PMS_P1;PMS_P2;Temp;Humidity;BMP_temperature;BMP_pressure;BME280_temperature;BME280_humidity;BME280_pressure;Samples;Min_cycle;Max_cycle;Signal;HPM_P1;HPM_P2
2021/05/18 00:01:58;;;;;;;2.27;1.17;;;;;;;9.77;100.00;98545.38;10461063;28;20207;-76
2021/05/18 00:07:20;;;;;;;2.07;1.63;;;;;;;9.81;100.00;98553.59;10461684;28;20176;-77
2021/05/18 00:12:39;;;;;;;1.10;1.00;;;;;;;9.81;100.00;98548.84;10462186;28;20575;-77
2021/05/18 00:17:59;;;;;;;1.00;0.80;;;;;;;9.75;100.00;98555.22;10461007;28;20175;-78
2021/05/18 00:23:18;;;;;;;1.00;0.80;;;;;;;9.71;100.00;98559.94;10461356;28;20175;-76
2021/05/18 00:28:38;;;;;;;1.93;1.37;;;;;;;9.65;100.00;98561.56;10461500;28;20223;-77
2021/05/18 00:33:57;;;;;;;1.10;0.93;;;;;;;9.48;100.00;98569.97;10460083;28;20207;-76
2021/05/18 00:39:18;;;;;;;1.97;1.47;;;;;;;9.41;100.00;98575.53;10460321;28;20168;-76
2021/05/18 00:44:37;;;;;;;1.30;1.20;;;;;;;9.37;100.00;98563.75;10460368;28;20215;-77
2021/05/18 00:49:56;;;;;;;2.23;0.87;;;;;;;9.32;100.00;98564.22;10458467;28;20175;-76
2021/05/18 00:55:22;;;;;;;1.13;1.00;;;;;;;9.30;100.00;98580.28;10459184;28;20203;-77
2021/05/18 01:00:43;;;;;;;1.67;1.57;;;;;;;9.25;100.00;98576.00;10459765;28;20254;-76
2021/05/18 01:11:46;;;;;;;1.90;1.80;;;;;;;9.08;100.00;98598.09;10459744;28;20214;-76
2021/05/18 01:17:06;;;;;;;2.23;1.50;;;;;;;9.11;100.00;98597.25;10458864;28;20274;-76
2021/05/18 01:22:24;;;;;;;1.63;1.53;;;;;;;9.11;100.00;98603.53;10458872;28;20171;-76
2021/05/18 01:27:43;;;;;;;2.20;1.37;;;;;;;9.14;100.00;98608.22;10459494;28;20223;-76
2021/05/18 01:33:03;;;;;;;1.87;1.73;;;;;;;9.11;100.00;98614.53;10456713;28;20211;-76
2021/05/18 01:38:26;;;;;;;2.07;1.83;;;;;;;9.19;100.00;98626.22;10458348;28;20183;-76
2021/05/18 01:43:54;;;;;;;2.27;1.47;;;;;;;9.16;100.00;98621.56;10458982;28;20242;-76
2021/05/18 01:49:16;;;;;;;2.33;2.20;;;;;;;9.25;100.00;98614.44;10456632;28;20171;-76
2021/05/18 01:54:36;;;;;;;2.83;2.53;;;;;;;9.31;100.00;98612.81;10457548;28;20207;-77
2021/05/18 01:59:55;;;;;;;1.73;1.60;;;;;;;9.38;100.00;98621.00;10457316;28;20207;-77
2021/05/18 02:05:16;;;;;;;3.53;2.10;;;;;;;9.44;100.00;98629.59;10456008;28;20191;-76
2021/05/18 02:10:36;;;;;;;2.60;1.80;;;;;;;9.52;100.00;98623.66;10457815;28;20176;-77
2021/05/18 02:16:05;;;;;;;3.70;2.37;;;;;;;9.55;100.00;98623.66;10456692;28;20195;-77
2021/05/18 02:26:52;;;;;;;2.57;2.30;;;;;;;9.71;100.00;98626.66;10456610;28;20215;-76
2021/05/18 02:32:11;;;;;;;2.47;1.93;;;;;;;9.75;100.00;98632.88;10455733;28;20248;-77
2021/05/18 02:37:30;;;;;;;2.17;1.97;;;;;;;9.75;100.00;98638.38;10455946;28;20634;-76
2021/05/18 02:42:50;;;;;;;2.20;2.00;;;;;;;9.74;100.00;98628.59;10456981;28;20180;-76
2021/05/18 02:53:47;;;;;;;1.93;1.73;;;;;;;9.78;100.00;98645.03;10455965;28;20210;-77
2021/05/18 03:04:29;;;;;;;2.40;2.20;;;;;;;9.71;100.00;98647.84;10454533;28;20254;-77
2021/05/18 03:09:48;;;;;;;4.20;1.93;;;;;;;9.88;100.00;98652.41;10456228;28;20172;-76
2021/05/18 03:15:08;;;;;;;2.57;1.70;;;;;;;9.75;100.00;98645.84;10454425;28;20214;-76
2021/05/18 03:20:27;;;;;;;3.00;2.13;;;;;;;9.80;100.00;98661.91;10454563;28;20567;-76
2021/05/18 03:25:46;;;;;;;2.53;2.03;;;;;;;9.86;100.00;98666.56;10455770;28;20211;-77
2021/05/18 03:36:24;;;;;;;2.47;2.27;;;;;;;9.94;100.00;98670.03;10453761;28;20202;-77
2021/05/18 03:41:53;;;;;;;1.93;1.80;;;;;;;9.92;100.00;98669.66;10454607;28;20565;-76
2021/05/18 04:48:12;;;;;;;1.83;1.73;;;;;;;9.83;100.00;98718.78;10460875;28;20199;-76
2021/05/18 05:16:41;;;;;;;1.30;1.20;;;;;;;10.13;100.00;98749.22;10459470;28;20261;-76
2021/05/18 05:22:01;;;;;;;1.50;1.20;;;;;;;10.25;100.00;98757.75;10459353;28;20635;-76
2021/05/18 05:27:21;;;;;;;1.50;1.23;;;;;;;10.44;100.00;98763.50;10457098;28;20226;-76
2021/05/18 05:32:40;;;;;;;1.90;1.60;;;;;;;10.53;100.00;98768.53;10457799;28;20215;-76
2021/05/18 05:38:01;;;;;;;1.10;0.90;;;;;;;10.39;100.00;98771.38;10458532;28;20262;-76
2021/05/18 05:43:20;;;;;;;1.60;1.50;;;;;;;10.50;100.00;98772.09;10458132;28;20638;-76
2021/05/18 05:48:39;;;;;;;1.67;1.57;;;;;;;10.89;100.00;98767.00;10456603;28;20635;-76
2021/05/18 05:53:59;;;;;;;1.67;1.13;;;;;;;11.12;100.00;98771.47;10458018;28;20233;-75
2021/05/18 05:59:19;;;;;;;0.90;0.77;;;;;;;11.20;100.00;98777.69;10458657;28;20195;-76
2021/05/18 06:04:38;;;;;;;1.00;0.70;;;;;;;11.03;100.00;98783.34;10457216;28;20183;-77
2021/05/18 06:10:06;;;;;;;1.80;1.40;;;;;;;11.19;100.00;98787.91;10458340;28;20176;-76
2021/05/18 06:41:10;;;;;;;5.53;0.80;;;;;;;11.79;100.00;98795.47;10487559;28;20175;-78
2021/05/18 06:48:57;;;;;;;1.37;1.27;;;;;;;11.96;100.00;98793.25;10496375;28;20174;-76
2021/05/18 06:54:16;;;;;;;2.60;1.13;;;;;;;12.37;100.00;98804.84;10496169;28;20206;-77
2021/05/18 07:05:20;;;;;;;1.47;1.00;;;;;;;12.53;100.00;98813.28;10496505;28;20178;-77
2021/05/18 07:10:44;;;;;;;1.60;1.03;;;;;;;12.02;100.00;98810.91;10510780;28;20202;-77
2021/05/18 07:16:04;;;;;;;1.13;0.87;;;;;;;12.48;100.00;98824.03;10511277;28;20179;-76
2021/05/18 07:21:23;;;;;;;1.10;0.93;;;;;;;12.32;100.00;98821.88;10507937;28;20166;-77
2021/05/18 07:26:41;;;;;;;3.30;1.50;;;;;;;11.99;100.00;98819.22;10496259;28;20254;-77
2021/05/18 07:32:01;;;;;;;1.20;0.87;;;;;;;12.36;100.00;98817.06;10495717;28;20569;-76
2021/05/18 07:37:21;;;;;;;1.97;0.90;;;;;;;12.71;100.00;98819.28;10497195;28;20187;-76
2021/05/18 07:42:41;;;;;;;1.10;0.93;;;;;;;12.71;100.00;98819.28;10495757;28;20176;-76
2021/05/18 07:48:14;;;;;;;1.33;1.00;;;;;;;12.78;100.00;98811.69;10494779;28;20174;-77
2021/05/18 07:59:24;;;;;;;1.20;1.07;;;;;;;13.86;100.00;98808.81;10497888;28;20574;-79
2021/05/18 10:36:42;;;;;;;1.30;1.00;;;;;;;17.32;61.99;98743.06;10497229;28;20167;-79
2021/05/18 10:42:11;;;;;;;1.20;0.83;;;;;;;17.45;61.00;98744.50;10498013;28;20716;-79
2021/05/18 10:47:44;;;;;;;1.73;1.07;;;;;;;18.74;59.24;98722.72;10497063;28;20187;-78
2021/05/18 10:53:22;;;;;;;1.20;0.93;;;;;;;18.39;53.61;98715.81;10497682;28;20289;-76
2021/05/18 10:58:41;;;;;;;1.00;0.80;;;;;;;16.68;56.76;98717.91;10497840;28;20254;-76
2021/05/18 11:04:00;;;;;;;1.03;0.80;;;;;;;15.60;60.71;98719.34;10496607;28;20175;-76
2021/05/18 11:09:20;;;;;;;1.10;0.80;;;;;;;15.17;63.88;98713.44;10497542;28;20198;-76
2021/05/18 11:15:09;;;;;;;1.40;1.10;;;;;;;14.69;67.24;98729.41;10496808;28;20242;-75
2021/05/18 11:26:06;;;;;;;1.43;1.07;;;;;;;14.36;77.04;98743.69;10499989;28;20183;-74
2021/05/18 11:31:26;;;;;;;1.43;0.70;;;;;;;14.44;72.87;98725.72;10505684;28;20202;-73
2021/05/18 11:36:45;;;;;;;1.03;0.87;;;;;;;15.42;68.77;98718.31;10504449;28;20171;-75
2021/05/18 11:42:04;;;;;;;1.37;0.90;;;;;;;16.40;65.98;98716.84;10505323;28;20632;-76
2021/05/18 11:47:27;;;;;;;1.50;1.17;;;;;;;18.16;61.43;98707.97;10503939;28;20174;-78
2021/05/18 11:52:46;;;;;;;1.10;0.80;;;;;;;19.74;55.53;98695.13;10503524;28;20218;-78
2021/05/18 11:58:15;;;;;;;2.70;1.00;;;;;;;19.60;53.03;98692.97;10503849;28;20183;-76
2021/05/18 12:03:35;;;;;;;1.00;0.80;;;;;;;19.09;50.61;98698.91;10503243;28;20179;-76
2021/05/18 12:08:58;;;;;;;1.47;1.37;;;;;;;19.65;52.37;98700.72;10503114;28;20565;-75
2021/05/18 12:14:17;;;;;;;1.20;1.10;;;;;;;17.94;55.68;98700.91;10502451;28;20210;-76
2021/05/18 12:19:40;;;;;;;1.97;1.07;;;;;;;18.03;58.50;98703.75;10502246;28;20597;-76
2021/05/18 12:24:59;;;;;;;1.77;1.07;;;;;;;17.91;57.64;98687.94;10502591;28;20638;-75
2021/05/18 12:30:18;;;;;;;1.13;1.00;;;;;;;17.36;57.38;98686.09;10502703;28;20210;-74
2021/05/18 12:35:37;;;;;;;1.23;1.13;;;;;;;16.64;62.82;98695.81;10501030;28;20248;-76
2021/05/18 12:41:04;;;;;;;1.50;1.00;;;;;;;16.32;65.84;98706.41;10501882;28;20637;-74
2021/05/18 12:46:23;;;;;;;2.17;1.63;;;;;;;15.98;66.97;98709.06;10501678;28;20182;-75
2021/05/18 12:51:59;;;;;;;1.30;1.07;;;;;;;16.20;66.41;98712.72;10501182;28;20586;-74
2021/05/18 12:57:21;;;;;;;1.40;1.10;;;;;;;15.84;71.38;98711.50;10501296;28;20211;-75
2021/05/18 13:02:45;;;;;;;1.10;0.83;;;;;;;14.96;81.86;98731.84;10514230;28;20175;-75
2021/05/18 13:08:11;;;;;;;1.13;0.60;;;;;;;13.87;87.01;98741.25;10500937;28;20199;-75
2021/05/18 13:13:37;;;;;;;1.27;1.17;;;;;;;13.34;86.66;98740.81;10501613;28;20206;-76
2021/05/18 13:19:05;;;;;;;1.33;1.20;;;;;;;13.80;87.00;98750.50;10500537;28;20261;-76
2021/05/18 13:30:05;;;;;;;1.00;0.60;;;;;;;16.36;65.88;98721.72;10500587;28;20227;-76
2021/05/18 13:35:28;;;;;;;0.90;0.50;;;;;;;16.49;66.38;98710.59;10499069;28;20203;-76
2021/05/18 13:40:49;;;;;;;1.10;0.77;;;;;;;16.84;60.37;98716.50;10499860;28;20183;-75
2021/05/18 13:46:09;;;;;;;1.17;0.90;;;;;;;16.11;56.96;98724.47;10499366;28;20214;-74
2021/05/18 13:51:29;;;;;;;1.00;0.80;;;;;;;16.34;67.17;98734.50;10498195;28;20559;-79
2021/05/18 13:56:48;;;;;;;2.70;0.77;;;;;;;16.18;68.91;98745.69;10500507;28;20174;-75
2021/05/18 14:02:07;;;;;;;0.90;0.60;;;;;;;15.63;68.61;98740.66;10498871;28;20171;-73
2021/05/18 14:13:29;;;;;;;1.10;0.90;;;;;;;13.72;85.64;98729.75;10489428;28;20222;-73
2021/05/18 14:18:50;;;;;;;1.00;0.70;;;;;;;15.27;78.91;98720.69;10497818;28;20257;-73
2021/05/18 14:29:28;;;;;;;11.60;0.80;;;;;;;15.31;69.54;98738.00;10498118;28;20214;-73
2021/05/18 14:34:47;;;;;;;1.50;0.70;;;;;;;16.02;70.07;98724.41;10496897;28;20202;-77
2021/05/18 14:45:37;;;;;;;0.90;0.60;;;;;;;16.56;60.26;98727.03;10497597;28;20166;-77
2021/05/18 14:56:35;;;;;;;1.53;0.43;;;;;;;16.44;57.88;98725.06;10497295;28;20205;-73
2021/05/18 15:01:55;;;;;;;0.90;0.57;;;;;;;16.45;57.38;98737.72;10497587;28;20174;-73
2021/05/18 15:07:14;;;;;;;3.10;1.00;;;;;;;16.47;58.78;98755.47;10497576;28;20234;-73
2021/05/18 15:12:33;;;;;;;0.80;0.47;;;;;;;16.08;59.16;98742.03;10495956;28;20214;-73
2021/05/18 15:17:56;;;;;;;1.57;0.87;;;;;;;16.30;60.72;98737.38;10495226;28;20253;-75
2021/05/18 15:23:14;;;;;;;0.90;0.70;;;;;;;16.43;62.53;98740.16;10497201;28;20182;-75
2021/05/18 15:28:35;;;;;;;0.80;0.50;;;;;;;16.60;61.91;98742.34;10496689;28;20214;-77
2021/05/18 15:33:54;;;;;;;2.40;0.93;;;;;;;16.45;64.27;98737.72;10494502;28;20202;-78
2021/05/18 15:39:15;;;;;;;1.00;0.70;;;;;;;16.88;63.55;98727.50;10495954;28;20206;-73
2021/05/18 15:44:34;;;;;;;1.10;0.80;;;;;;;15.70;65.46;98743.22;10495605;28;20632;-77
2021/05/18 15:49:56;;;;;;;1.03;0.63;;;;;;;15.16;64.14;98747.91;10495736;28;20187;-76
2021/05/18 15:55:15;;;;;;;0.93;0.60;;;;;;;14.92;71.69;98748.56;10496060;28;20202;-76
2021/05/18 16:00:34;;;;;;;1.43;0.60;;;;;;;14.29;71.11;98754.16;10496754;28;20186;-77
2021/05/18 16:05:53;;;;;;;1.40;0.70;;;;;;;13.54;72.76;98770.81;10494323;28;20258;-73
2021/05/18 16:11:12;;;;;;;1.00;0.50;;;;;;;13.70;75.75;98764.53;10497172;28;20190;-73
2021/05/18 16:16:32;;;;;;;1.40;0.97;;;;;;;14.45;71.68;98768.78;10501746;28;20179;-74
2021/05/18 16:21:52;;;;;;;0.90;0.57;;;;;;;15.73;68.59;98750.66;10502436;28;20179;-74
2021/05/18 16:27:12;;;;;;;0.90;0.50;;;;;;;16.02;62.92;98751.34;10503268;28;20752;-74
2021/05/18 16:32:31;;;;;;;4.77;0.63;;;;;;;15.65;65.00;98746.53;10501956;28;20198;-74
2021/05/18 16:37:51;;;;;;;1.30;0.90;;;;;;;15.27;66.50;98751.19;10503196;28;20548;-75
2021/05/18 16:43:10;;;;;;;0.90;0.53;;;;;;;14.80;69.00;98754.81;10502084;28;20167;-78
2021/05/18 16:48:30;;;;;;;1.03;0.70;;;;;;;14.65;70.14;98755.59;10500396;28;20186;-74
2021/05/18 16:53:53;;;;;;;1.00;0.70;;;;;;;14.18;71.16;98768.22;10502218;28;20206;-74
2021/05/18 16:59:12;;;;;;;1.73;0.80;;;;;;;13.63;74.68;98761.91;10502215;28;20183;-74
2021/05/18 17:04:31;;;;;;;1.07;0.80;;;;;;;13.61;75.52;98770.66;10500964;28;20218;-73
2021/05/18 17:09:50;;;;;;;0.93;0.83;;;;;;;13.39;78.19;98768.75;10501792;28;21060;-77
2021/05/18 17:15:10;;;;;;;1.07;0.70;;;;;;;13.49;81.72;98773.28;10501221;28;20210;-75
2021/05/18 17:20:32;;;;;;;5.00;1.10;;;;;;;13.61;84.61;98767.09;10500311;28;20175;-77
2021/05/18 17:25:51;;;;;;;1.13;1.00;;;;;;;13.40;84.87;98770.31;10501208;28;20522;-75
2021/05/18 17:31:12;;;;;;;1.20;1.10;;;;;;;13.42;83.79;98778.94;10501123;28;20179;-76
2021/05/18 17:36:31;;;;;;;1.43;1.13;;;;;;;13.34;82.14;98771.22;10499768;28;20167;-75
2021/05/18 17:41:51;;;;;;;1.00;0.70;;;;;;;13.29;83.66;98774.47;10500639;28;20253;-74
2021/05/18 17:47:11;;;;;;;1.40;1.00;;;;;;;13.56;83.84;98779.47;10464953;28;20226;-77
2021/05/18 17:52:31;;;;;;;1.30;0.90;;;;;;;13.44;86.24;98786.81;10458690;28;20228;-75
2021/05/18 17:57:50;;;;;;;1.93;1.07;;;;;;;13.46;86.87;98790.69;10457546;28;20179;-75
2021/05/18 18:03:09;;;;;;;1.50;0.77;;;;;;;13.61;84.30;98797.50;10456265;28;20175;-75
2021/05/18 18:08:29;;;;;;;1.60;1.27;;;;;;;13.36;83.07;98802.75;10458200;28;20199;-79
2021/05/18 18:13:48;;;;;;;1.20;1.00;;;;;;;13.20;85.42;98794.41;10456686;28;20312;-74
2021/05/18 18:19:07;;;;;;;1.30;0.90;;;;;;;13.08;84.77;98802.50;10455525;28;20600;-76
2021/05/18 18:24:26;;;;;;;1.20;0.90;;;;;;;12.99;84.00;98803.06;10457689;28;20179;-76
2021/05/18 18:29:45;;;;;;;1.20;1.00;;;;;;;12.72;87.62;98806.28;10455730;28;20223;-75
2021/05/18 18:35:05;;;;;;;1.30;0.93;;;;;;;12.61;90.20;98817.47;10455036;28;20298;-75
2021/05/18 18:40:24;;;;;;;1.00;0.60;;;;;;;12.37;93.10;98815.88;10457096;28;20175;-73
2021/05/18 18:45:43;;;;;;;1.20;1.00;;;;;;;12.15;96.25;98816.63;10459041;28;20175;-74
2021/05/18 18:51:17;;;;;;;6.20;1.33;;;;;;;12.02;100.00;98821.94;10454467;28;20175;-76
2021/05/18 18:56:36;;;;;;;1.20;0.73;;;;;;;11.89;100.00;98824.84;10455450;28;20211;-75
2021/05/18 19:01:59;;;;;;;0.90;0.60;;;;;;;11.74;100.00;98834.50;10455477;28;20167;-73
2021/05/18 19:07:31;;;;;;;1.20;0.73;;;;;;;11.67;100.00;98840.09;10461380;28;20622;-74
2021/05/18 19:12:50;;;;;;;1.57;0.70;;;;;;;11.45;100.00;98847.03;10455741;28;20679;-73
2021/05/18 19:18:10;;;;;;;0.90;0.70;;;;;;;11.38;100.00;98858.13;10454825;28;20254;-76
2021/05/18 19:23:29;;;;;;;2.33;0.60;;;;;;;11.28;100.00;98864.53;10455635;28;20843;-75
2021/05/18 19:28:48;;;;;;;1.53;0.90;;;;;;;11.06;100.00;98868.69;10455353;28;20219;-74
2021/05/18 19:34:14;;;;;;;1.00;0.70;;;;;;;10.89;100.00;98882.56;10459674;28;20210;-74
2021/05/18 19:45:16;;;;;;;1.97;1.23;;;;;;;10.58;100.00;98900.88;10496812;28;20171;-74
2021/05/18 19:50:35;;;;;;;1.07;0.70;;;;;;;10.41;100.00;98907.31;10502767;28;20592;-74
2021/05/18 19:55:59;;;;;;;0.80;0.60;;;;;;;10.25;100.00;98903.47;10502894;28;20672;-77
2021/05/18 20:23:50;;;;;;;2.03;1.20;;;;;;;9.96;100.00;98909.47;10503243;28;20202;-75
2021/05/18 20:29:08;;;;;;;0.90;0.67;;;;;;;9.88;100.00;98921.66;10502182;28;20261;-76
2021/05/18 20:40:00;;;;;;;3.10;1.80;;;;;;;9.77;100.00;98918.19;10502798;28;20175;-75
2021/05/18 20:45:20;;;;;;;1.97;1.23;;;;;;;9.87;100.00;98928.34;10502832;28;20243;-75
2021/05/18 20:50:39;;;;;;;1.10;0.70;;;;;;;9.74;100.00;98927.22;10500619;28;20175;-75
2021/05/18 20:55:58;;;;;;;1.90;0.83;;;;;;;9.63;100.00;98920.94;10502260;28;20198;-77
2021/05/18 21:01:19;;;;;;;1.63;1.53;;;;;;;9.57;100.00;98928.03;10502333;28;20645;-76
2021/05/18 21:06:40;;;;;;;1.10;0.90;;;;;;;9.56;100.00;98924.53;10501070;28;20175;-75
2021/05/18 21:17:28;;;;;;;1.20;0.70;;;;;;;9.39;100.00;98916.31;10500090;28;20269;-76
2021/05/18 21:22:47;;;;;;;1.53;1.00;;;;;;;9.39;100.00;98926.50;10500498;28;20277;-77
2021/05/18 21:28:07;;;;;;;1.10;1.00;;;;;;;9.40;100.00;98922.59;10501067;28;20226;-78
2021/05/18 21:33:26;;;;;;;1.43;1.00;;;;;;;9.41;100.00;98924.16;10498848;28;20178;-76
2021/05/18 21:38:45;;;;;;;2.30;1.27;;;;;;;9.39;100.00;98916.31;10499812;28;20178;-77
2021/05/18 21:44:05;;;;;;;1.63;1.17;;;;;;;9.35;100.00;98926.53;10499452;28;20664;-75
2021/05/18 21:49:24;;;;;;;1.30;1.13;;;;;;;9.18;100.00;98919.09;10499172;28;20179;-77
2021/05/18 21:54:43;;;;;;;1.00;0.67;;;;;;;9.22;100.00;98924.56;10500404;28;20187;-77
2021/05/18 22:00:26;;;;;;;1.00;0.87;;;;;;;9.12;100.00;98919.88;10499210;28;20171;-77
2021/05/18 22:05:50;;;;;;;1.20;0.97;;;;;;;9.11;100.00;98923.78;10495834;28;20222;-76
2021/05/18 22:27:43;;;;;;;1.73;1.13;;;;;;;9.33;100.00;98939.09;10498632;28;20219;-73
2021/05/18 22:33:02;;;;;;;5.50;2.37;;;;;;;9.35;100.00;98937.50;10497397;28;20616;-77
2021/05/18 22:38:23;;;;;;;1.17;1.07;;;;;;;9.40;100.00;98936.31;10498777;28;20174;-76
2021/05/18 22:43:42;;;;;;;1.97;1.50;;;;;;;9.23;100.00;98937.13;10497067;28;20206;-74
2021/05/18 22:49:02;;;;;;;1.10;1.00;;;;;;;9.17;100.00;98934.00;10497025;28;20175;-73
2021/05/18 22:54:21;;;;;;;0.90;0.70;;;;;;;9.05;100.00;98937.13;10497182;28;20191;-74
2021/05/18 22:59:40;;;;;;;1.53;0.70;;;;;;;8.95;100.00;98939.88;10498224;28;20601;-74
2021/05/18 23:05:00;;;;;;;1.10;0.83;;;;;;;8.84;100.00;98939.88;10495090;28;20210;-74
2021/05/18 23:10:19;;;;;;;1.60;1.10;;;;;;;8.75;100.00;98944.94;10497917;28;20223;-75
2021/05/18 23:15:39;;;;;;;0.90;0.60;;;;;;;8.79;100.00;98947.69;10497647;28;20178;-74
2021/05/18 23:20:58;;;;;;;0.90;0.70;;;;;;;8.74;100.00;98951.59;10495951;28;20178;-75
2021/05/18 23:26:16;;;;;;;1.53;0.90;;;;;;;8.75;100.00;98950.44;10495662;28;20225;-74
2021/05/18 23:31:35;;;;;;;0.90;0.70;;;;;;;8.63;100.00;98952.00;10496236;28;20178;-75
2021/05/18 23:36:54;;;;;;;1.03;0.90;;;;;;;8.51;100.00;98955.09;10496038;28;20238;-76
2021/05/18 23:42:13;;;;;;;0.93;0.70;;;;;;;8.49;100.00;98954.69;10495948;28;21019;-74
2021/05/18 23:47:32;;;;;;;1.03;0.90;;;;;;;8.42;100.00;98954.69;10495120;28;20198;-74
2021/05/18 23:52:52;;;;;;;1.20;1.10;;;;;;;8.36;100.00;98961.72;10496843;28;20230;-74
2021/05/18 23:58:11;;;;;;;1.40;1.20;;;;;;;8.29;100.00;98967.19;10496884;28;20171;-74
